Temae, French Polynesia

9:35 PM TAHT on November 28, 2014 (GMT -1000)
Faaa | Change Station
CLOSE
Current Station
Airport
Location: Tahiti,
Elevation: 7 ft
Nearby Weather Stations

Elev 7 ft 17.56 °S, 149.61 °W | Updated 5 minutes ago

Mostly Cloudy
Mostly Cloudy
79 °F
Feels Like 79 °F
N
1
Wind Variable Wind from Variable

Today
High -- | Low -- °F
--% Chance of Precip.
Yesterday
High -- | Low -- °F
Precip. -- in
5:14 AM 6:19 PM
Waxing Crescent, 49% visible
Pressure 29.77 in
Visibility 6.2 miles
Clouds Few 2000 ft
Scattered Clouds 5000 ft
Mostly Cloudy 10000 ft
Dew Point 73 °F
Humidity 83%
Rainfall 0.00 in
Snow Depth Not available.
UV 0 out of 12
Pollen Not available.
Air Quality Not available.
Flu Activity Not available.
METAR NTAA 290730Z VRB01KT 9999 VCSH FEW020 SCT050 BKN100 26/23 Q1008 NOSIG

More Conditions Fewer Conditions

Pressure 29.77 in
Visibility 6.2 miles
Clouds Few 2000 ft
Scattered Clouds 5000 ft
Mostly Cloudy 10000 ft
Dew Point 73 °F
Humidity 83%
Rainfall 0.00 in
Snow Depth Not available.
UV 0 out of 12
Pollen Not available.
Air Quality Not available.
Flu Activity Not available.
METAR NTAA 290730Z VRB01KT 9999 VCSH FEW020 SCT050 BKN100 26/23 Q1008 NOSIG

More Conditions Fewer Conditions

10-Day Weather Forecast

Almanac

Astronomy

Nov. 28, 2014 Rise Set
Actual Time
Civil Twilight
Nautical Twilight
Astronomical Twilight
Moon
Length of Visible Light
Length of Day
Tomorrow will be .
, % of the Moon is Illuminated

Today's Extremes

Country Highs Country Lows

Community

WunderPhotos

Upload Photos

1,774,432 photos uploaded!

WunderBlogs® & News

Nearby

Air Quality

  Air Quality AQ Index Pollutant
Not available.

Snow Depth

Station Depth Elevation

Earthquake Activity

City Distance Mag. Time & Date
Minimum magnitude displayed is 2.5.

Coastal Water Temperatures

Place Temperature

Nearby Weather Stations